Due to severe server failure at the provider, not all demo sites are operational. Will take some days to rebuilt everything.

Demonstration site - Click on the  for more information

This is an optional block. Switch it on/off in your settings-file: $SITE['bannerTop'] = false; or $SITE['bannerBottom'] = false;

You can display ads, any other important text or photo’s using text / html or PHP code.

You can place one or more at the top and or bottom and it can all be different for content / size .



Visit our other weather sites:

Template documentation
and downloads

And another site



Nearby METAR Reports

   
EBAW - Antwerp
Updated: 20-08-2019 09:50
Few Clouds  
Few Clouds  
   Wind: SW 13 km/h
Wind: SW 13 km/h
Temperature: 17°C
Dew Point: 13°C
Humidity: 77%
Barometer: 1022 hPa
Clouds: Few Clouds
Visibility: More than 10 km
Cloud details: Few Clouds 1600 ft
EBAW 200750Z 22007KT 9999 FEW016 17/13 Q1022 NOSIG
EBLG - Liège
Updated: 20-08-2019 09:50
Few Clouds  
Few Clouds  
   Wind: SW 13 km/h
Wind: SW 13 km/h
Temperature: 15°C
Dew Point: 12°C
Humidity: 82%
Barometer: 1023 hPa
Clouds: Few Clouds
Visibility: More than 10 km
Cloud details: Few Clouds 1400 ft
EBLG 200750Z 23007KT 9999 FEW014 15/12 Q1023 NOSIG
EBCV - Mons/Bergen
Updated: 20-08-2019 09:25
Clear  
Clear  
   Wind: SW 14.8 km/h
Wind: SW 14.8 km/h
Temperature: 16°C
Dew Point: 13°C
Humidity: 83%
Barometer: 1023 hPa
Clouds: Clear
Visibility: More than 10 km
Cloud details: Clear ft
EBCV 200725Z AUTO 22008KT 9999 NCD 16/13 Q1023 BLU
EHBK - Maastricht
Updated: 20-08-2019 09:55
Partly Cloudy  
Partly Cloudy  
   Wind: WSW 14.8 km/h
Wind: WSW 14.8 km/h
Temperature: 16°C
Dew Point: 13°C
Humidity: 83%
Barometer: 1022 hPa
Clouds: Partly Cloudy
Visibility: More than 10 km
Cloud details: Partly Cloudy ft
EHBK 200755Z AUTO 24008KT 200V260 9999 NSC 16/13 Q1022 NOSIG
ELLX - Luxemburg
Updated: 20-08-2019 09:50
Clear  
Clear  
   Wind: NNE 9.3 km/h
Wind: NNE 9.3 km/h
Temperature: 15°C
Dew Point: 9°C
Humidity: 68%
Barometer: 1023 hPa
Visibility: More than 10 km
Cloud details: Clear ft
ELLX 200750Z 03005KT 350V060 CAVOK 15/09 Q1023 NOSIG
EBOS - Oostende
Updated: 20-08-2019 09:50
Few Clouds  
Few Clouds  
   Wind: WSW 14.8 km/h
Wind: WSW 14.8 km/h
Temperature: 17°C
Dew Point: 13°C
Humidity: 77%
Barometer: 1022 hPa
Clouds: Few Clouds
Visibility: More than 10 km
Cloud details: Few Clouds 1800 ft
EBOS 200750Z 24008KT 9999 FEW018 17/13 Q1022 NOSIG

Script developed by  Saratoga-weather.org Adapted for the template by  Weerstation Leuven

This is an optional block. Switch it on/off in your settings-file: $SITE['bannerTop'] = false; or $SITE['bannerBottom'] = false;

You can display ads, any other important text or photo’s using text / html or PHP code.

You can place one or more at the top and or bottom and it can all be different for content / size .